sensor_id;sensor_type;location;lat;lon;timestamp;pressure;altitude;pressure_sealevel;temperature;humidity
17607;BME280;8922;52.240;20.980;2022-12-18T00:00:11;101594.50;;;-3.97;73.96
17607;BME280;8922;52.240;20.980;2022-12-18T00:02:39;101599.88;;;-3.93;73.77
17607;BME280;8922;52.240;20.980;2022-12-18T00:05:08;101600.66;;;-3.94;73.41
17607;BME280;8922;52.240;20.980;2022-12-18T00:07:36;101596.13;;;-3.98;73.42
17607;BME280;8922;52.240;20.980;2022-12-18T00:10:07;101611.44;;;-3.95;73.88
17607;BME280;8922;52.240;20.980;2022-12-18T00:12:35;101602.16;;;-3.96;73.54
17607;BME280;8922;52.240;20.980;2022-12-18T00:15:06;101598.63;;;-3.98;73.66
17607;BME280;8922;52.240;20.980;2022-12-18T00:17:35;101610.03;;;-3.91;73.70
17607;BME280;8922;52.240;20.980;2022-12-18T00:20:04;101609.47;;;-3.87;73.93
17607;BME280;8922;52.240;20.980;2022-12-18T00:22:33;101619.00;;;-3.83;74.27
17607;BME280;8922;52.240;20.980;2022-12-18T00:25:01;101619.00;;;-3.83;73.98
17607;BME280;8922;52.240;20.980;2022-12-18T00:27:30;101627.56;;;-3.81;74.09
17607;BME280;8922;52.240;20.980;2022-12-18T00:29:58;101620.09;;;-3.79;74.00
17607;BME280;8922;52.240;20.980;2022-12-18T00:32:27;101622.84;;;-3.76;73.94
17607;BME280;8922;52.240;20.980;2022-12-18T00:34:56;101633.03;;;-3.75;73.72
17607;BME280;8922;52.240;20.980;2022-12-18T00:37:24;101629.09;;;-3.71;73.65
17607;BME280;8922;52.240;20.980;2022-12-18T00:39:53;101638.41;;;-3.70;73.71
17607;BME280;8922;52.240;20.980;2022-12-18T00:42:21;101635.97;;;-3.69;73.82
17607;BME280;8922;52.240;20.980;2022-12-18T00:45:08;101636.09;;;-3.67;73.93
17607;BME280;8922;52.240;20.980;2022-12-18T00:47:40;101647.28;;;-3.63;74.13
17607;BME280;8922;52.240;20.980;2022-12-18T00:50:09;101648.25;;;-3.61;73.68
17607;BME280;8922;52.240;20.980;2022-12-18T00:52:39;101649.88;;;-3.62;74.01
17607;BME280;8922;52.240;20.980;2022-12-18T00:55:08;101649.88;;;-3.62;74.01
17607;BME280;8922;52.240;20.980;2022-12-18T00:57:36;101652.41;;;-3.62;73.83
17607;BME280;8922;52.240;20.980;2022-12-18T01:00:08;101654.94;;;-3.62;74.08
17607;BME280;8922;52.240;20.980;2022-12-18T01:02:37;101656.66;;;-3.61;73.88
17607;BME280;8922;52.240;20.980;2022-12-18T01:05:08;101654.28;;;-3.59;73.71
17607;BME280;8922;52.240;20.980;2022-12-18T01:07:37;101665.44;;;-3.56;73.93
17607;BME280;8922;52.240;20.980;2022-12-18T01:10:08;101663.91;;;-3.54;73.80
17607;BME280;8922;52.240;20.980;2022-12-18T01:12:38;101669.16;;;-3.51;73.73
17607;BME280;8922;52.240;20.980;2022-12-18T01:15:07;101669.38;;;-3.48;73.88
17607;BME280;8922;52.240;20.980;2022-12-18T01:17:36;101666.09;;;-3.47;73.49
17607;BME280;8922;52.240;20.980;2022-12-18T01:20:08;101680.66;;;-3.43;73.60
17607;BME280;8922;52.240;20.980;2022-12-18T01:22:37;101672.22;;;-3.43;73.64
17607;BME280;8922;52.240;20.980;2022-12-18T01:25:06;101676.16;;;-3.47;73.49
17607;BME280;8922;52.240;20.980;2022-12-18T01:27:35;101677.03;;;-3.46;73.35
17607;BME280;8922;52.240;20.980;2022-12-18T01:30:04;101676.16;;;-3.47;72.95
17607;BME280;8922;52.240;20.980;2022-12-18T01:32:33;101692.06;;;-3.48;73.04
17607;BME280;8922;52.240;20.980;2022-12-18T01:35:01;101702.22;;;-3.46;72.79
17607;BME280;8922;52.240;20.980;2022-12-18T01:37:31;101712.31;;;-3.46;72.83
17607;BME280;8922;52.240;20.980;2022-12-18T01:40:00;101709.69;;;-3.48;73.07
17607;BME280;8922;52.240;20.980;2022-12-18T01:42:29;101711.34;;;-3.48;72.85
17607;BME280;8922;52.240;20.980;2022-12-18T01:45:05;101712.75;;;-3.52;72.73
17607;BME280;8922;52.240;20.980;2022-12-18T01:47:38;101714.50;;;-3.51;72.93
17607;BME280;8922;52.240;20.980;2022-12-18T01:50:11;101723.06;;;-3.49;72.72
17607;BME280;8922;52.240;20.980;2022-12-18T01:52:45;101718.81;;;-3.50;72.76
17607;BME280;8922;52.240;20.980;2022-12-18T01:55:20;101714.50;;;-3.51;72.51
17607;BME280;8922;52.240;20.980;2022-12-18T01:57:53;101723.06;;;-3.49;72.83
17607;BME280;8922;52.240;20.980;2022-12-18T02:00:24;101719.69;;;-3.49;72.95
17607;BME280;8922;52.240;20.980;2022-12-18T02:02:53;101724.81;;;-3.48;72.21
17607;BME280;8922;52.240;20.980;2022-12-18T02:05:33;101731.41;;;-3.50;72.65
17607;BME280;8922;52.240;20.980;2022-12-18T02:08:10;101731.59;;;-3.47;72.36
17607;BME280;8922;52.240;20.980;2022-12-18T02:10:51;101732.59;;;-3.45;72.19
17607;BME280;8922;52.240;20.980;2022-12-18T02:13:32;101744.41;;;-3.44;72.14
17607;BME280;8922;52.240;20.980;2022-12-18T02:16:10;101756.47;;;-3.40;72.55
17607;BME280;8922;52.240;20.980;2022-12-18T02:18:45;101758.13;;;-3.40;72.07
17607;BME280;8922;52.240;20.980;2022-12-18T02:21:25;101753.31;;;-3.37;72.12
17607;BME280;8922;52.240;20.980;2022-12-18T02:24:15;101761.72;;;-3.36;72.09
17607;BME280;8922;52.240;20.980;2022-12-18T02:26:49;101764.03;;;-3.40;72.28
17607;BME280;8922;52.240;20.980;2022-12-18T02:29:23;101764.56;;;-3.44;71.54
17607;BME280;8922;52.240;20.980;2022-12-18T02:31:57;101757.47;;;-3.49;71.99
17607;BME280;8922;52.240;20.980;2022-12-18T02:34:30;101766.69;;;-3.50;71.83
17607;BME280;8922;52.240;20.980;2022-12-18T02:37:02;101775.19;;;-3.48;72.02
17607;BME280;8922;52.240;20.980;2022-12-18T02:39:34;101777.06;;;-3.45;72.16
17607;BME280;8922;52.240;20.980;2022-12-18T02:42:05;101788.25;;;-3.42;72.33
17607;BME280;8922;52.240;20.980;2022-12-18T02:44:41;101791.53;;;-3.43;71.95
17607;BME280;8922;52.240;20.980;2022-12-18T02:47:11;101787.16;;;-3.45;72.09
17607;BME280;8922;52.240;20.980;2022-12-18T02:49:49;101788.81;;;-3.46;72.08
17607;BME280;8922;52.240;20.980;2022-12-18T02:52:28;101787.03;;;-3.47;72.02
17607;BME280;8922;52.240;20.980;2022-12-18T02:55:11;101782.84;;;-3.46;71.82
17607;BME280;8922;52.240;20.980;2022-12-18T02:57:49;101803.25;;;-3.43;71.65
17607;BME280;8922;52.240;20.980;2022-12-18T03:00:25;101801.72;;;-3.41;71.80
17607;BME280;8922;52.240;20.980;2022-12-18T03:03:02;101807.63;;;-3.41;71.76
17607;BME280;8922;52.240;20.980;2022-12-18T03:05:36;101814.34;;;-3.41;71.18
17607;BME280;8922;52.240;20.980;2022-12-18T03:08:10;101820.25;;;-3.41;71.45
17607;BME280;8922;52.240;20.980;2022-12-18T03:10:44;101827.81;;;-3.41;71.55
17607;BME280;8922;52.240;20.980;2022-12-18T03:13:19;101832.84;;;-3.41;71.09
17607;BME280;8922;52.240;20.980;2022-12-18T03:15:52;101834.34;;;-3.43;71.31
17607;BME280;8922;52.240;20.980;2022-12-18T03:18:25;101839.19;;;-3.46;71.38
17607;BME280;8922;52.240;20.980;2022-12-18T03:21:02;101834.56;;;-3.51;71.30
17607;BME280;8922;52.240;20.980;2022-12-18T03:23:36;101837.09;;;-3.51;71.44
17607;BME280;8922;52.240;20.980;2022-12-18T03:26:11;101842.03;;;-3.53;70.97
17607;BME280;8922;52.240;20.980;2022-12-18T03:28:49;101840.06;;;-3.57;71.22
17607;BME280;8922;52.240;20.980;2022-12-18T03:31:21;101843.06;;;-3.61;70.57
17607;BME280;8922;52.240;20.980;2022-12-18T03:33:54;101848.78;;;-3.63;71.13
17607;BME280;8922;52.240;20.980;2022-12-18T03:36:24;101854.47;;;-3.66;71.26
17607;BME280;8922;52.240;20.980;2022-12-18T03:38:52;101859.28;;;-3.69;71.20
17607;BME280;8922;52.240;20.980;2022-12-18T03:41:27;101857.53;;;-3.70;71.40
17607;BME280;8922;52.240;20.980;2022-12-18T03:44:04;101859.94;;;-3.72;71.63
17607;BME280;8922;52.240;20.980;2022-12-18T03:46:44;101861.56;;;-3.72;71.37
17607;BME280;8922;52.240;20.980;2022-12-18T03:49:21;101868.38;;;-3.71;71.49
17607;BME280;8922;52.240;20.980;2022-12-18T03:51:55;101867.59;;;-3.70;71.07
17607;BME280;8922;52.240;20.980;2022-12-18T03:54:26;101868.59;;;-3.68;71.37
17607;BME280;8922;52.240;20.980;2022-12-18T03:57:01;101872.09;;;-3.66;71.66
17607;BME280;8922;52.240;20.980;2022-12-18T03:59:33;101873.09;;;-3.64;72.01
17607;BME280;8922;52.240;20.980;2022-12-18T04:02:05;101875.09;;;-3.60;71.74
17607;BME280;8922;52.240;20.980;2022-12-18T04:04:36;101879.59;;;-3.56;71.91
17607;BME280;8922;52.240;20.980;2022-12-18T04:07:06;101890.88;;;-3.51;71.45
17607;BME280;8922;52.240;20.980;2022-12-18T04:09:35;101890.13;;;-3.50;71.68
17607;BME280;8922;52.240;20.980;2022-12-18T04:12:04;101893.53;;;-3.49;71.23
17607;BME280;8922;52.240;20.980;2022-12-18T04:14:34;101889.38;;;-3.49;70.93
17607;BME280;8922;52.240;20.980;2022-12-18T04:17:03;101899.22;;;-3.52;71.02
17607;BME280;8922;52.240;20.980;2022-12-18T04:19:32;101910.94;;;-3.52;71.23
17607;BME280;8922;52.240;20.980;2022-12-18T04:22:00;101905.56;;;-3.57;71.18
17607;BME280;8922;52.240;20.980;2022-12-18T04:24:28;101916.28;;;-3.59;71.06
17607;BME280;8922;52.240;20.980;2022-12-18T04:26:56;101928.72;;;-3.61;70.84
17607;BME280;8922;52.240;20.980;2022-12-18T04:29:25;101919.19;;;-3.65;70.71
17607;BME280;8922;52.240;20.980;2022-12-18T04:31:54;101921.38;;;-3.70;71.58
17607;BME280;8922;52.240;20.980;2022-12-18T04:34:23;101938.13;;;-3.70;71.37
17607;BME280;8922;52.240;20.980;2022-12-18T04:36:51;101928.59;;;-3.74;70.92
17607;BME280;8922;52.240;20.980;2022-12-18T04:39:20;101932.50;;;-3.78;70.76
17607;BME280;8922;52.240;20.980;2022-12-18T04:41:48;101933.38;;;-3.77;71.14
17607;BME280;8922;52.240;20.980;2022-12-18T04:44:17;101938.94;;;-3.81;71.09
17607;BME280;8922;52.240;20.980;2022-12-18T04:46:45;101944.63;;;-3.84;71.29
17607;BME280;8922;52.240;20.980;2022-12-18T04:49:15;101944.28;;;-3.89;70.87
17607;BME280;8922;52.240;20.980;2022-12-18T04:51:43;101946.31;;;-3.95;71.41
17607;BME280;8922;52.240;20.980;2022-12-18T04:54:12;101947.72;;;-3.98;70.83
17607;BME280;8922;52.240;20.980;2022-12-18T04:56:40;101949.78;;;-4.04;71.68
17607;BME280;8922;52.240;20.980;2022-12-18T04:59:08;101955.19;;;-4.10;71.35
17607;BME280;8922;52.240;20.980;2022-12-18T05:01:37;101961.63;;;-4.14;71.45
17607;BME280;8922;52.240;20.980;2022-12-18T05:04:05;101965.78;;;-4.14;72.01
17607;BME280;8922;52.240;20.980;2022-12-18T05:06:35;101968.06;;;-4.17;71.88
17607;BME280;8922;52.240;20.980;2022-12-18T05:09:04;101972.22;;;-4.18;71.97
17607;BME280;8922;52.240;20.980;2022-12-18T05:11:32;101978.66;;;-4.21;72.21
17607;BME280;8922;52.240;20.980;2022-12-18T05:14:00;101981.94;;;-4.22;72.24
17607;BME280;8922;52.240;20.980;2022-12-18T05:16:29;101985.06;;;-4.25;72.22
17607;BME280;8922;52.240;20.980;2022-12-18T05:18:57;101991.66;;;-4.27;72.35
17607;BME280;8922;52.240;20.980;2022-12-18T05:21:26;102000.69;;;-4.29;72.52
17607;BME280;8922;52.240;20.980;2022-12-18T05:23:55;101992.03;;;-4.32;72.54
17607;BME280;8922;52.240;20.980;2022-12-18T05:26:24;102004.34;;;-4.35;72.62
17607;BME280;8922;52.240;20.980;2022-12-18T05:28:52;102004.09;;;-4.39;72.71
17607;BME280;8922;52.240;20.980;2022-12-18T05:31:23;102013.19;;;-4.41;72.68
17607;BME280;8922;52.240;20.980;2022-12-18T05:33:51;102017.09;;;-4.44;72.62
17607;BME280;8922;52.240;20.980;2022-12-18T05:36:20;102010.94;;;-4.48;72.74
17607;BME280;8922;52.240;20.980;2022-12-18T05:38:48;102029.31;;;-4.49;72.61
17607;BME280;8922;52.240;20.980;2022-12-18T05:41:18;102020.50;;;-4.54;72.82
17607;BME280;8922;52.240;20.980;2022-12-18T05:43:46;102032.81;;;-4.57;73.27
17607;BME280;8922;52.240;20.980;2022-12-18T05:46:16;102031.47;;;-4.64;72.83
17607;BME280;8922;52.240;20.980;2022-12-18T05:48:46;102026.69;;;-4.71;74.03
17607;BME280;8922;52.240;20.980;2022-12-18T05:51:17;102037.63;;;-4.70;74.18
17607;BME280;8922;52.240;20.980;2022-12-18T05:53:46;102039.63;;;-4.66;74.01
17607;BME280;8922;52.240;20.980;2022-12-18T05:56:19;102043.91;;;-4.65;74.39
17607;BME280;8922;52.240;20.980;2022-12-18T05:58:51;102041.63;;;-4.62;74.14
17607;BME280;8922;52.240;20.980;2022-12-18T06:01:23;102038.34;;;-4.61;74.14
17607;BME280;8922;52.240;20.980;2022-12-18T06:03:52;102051.94;;;-4.59;75.04
17607;BME280;8922;52.240;20.980;2022-12-18T06:06:24;102042.75;;;-4.58;74.66
17607;BME280;8922;52.240;20.980;2022-12-18T06:08:53;102047.16;;;-4.56;75.00
17607;BME280;8922;52.240;20.980;2022-12-18T06:11:25;102050.81;;;-4.52;75.05
17607;BME280;8922;52.240;20.980;2022-12-18T06:13:56;102054.56;;;-4.47;75.43
17607;BME280;8922;52.240;20.980;2022-12-18T06:16:27;102059.34;;;-4.40;75.14
17607;BME280;8922;52.240;20.980;2022-12-18T06:18:57;102071.41;;;-4.36;75.10
17607;BME280;8922;52.240;20.980;2022-12-18T06:21:26;102070.03;;;-4.32;75.35
17607;BME280;8922;52.240;20.980;2022-12-18T06:23:55;102075.94;;;-4.32;75.17
17607;BME280;8922;52.240;20.980;2022-12-18T06:26:25;102087.28;;;-4.27;75.27
17607;BME280;8922;52.240;20.980;2022-12-18T06:28:54;102096.81;;;-4.23;75.49
17607;BME280;8922;52.240;20.980;2022-12-18T06:31:23;102095.28;;;-4.21;75.30
17607;BME280;8922;52.240;20.980;2022-12-18T06:33:51;102100.22;;;-4.22;75.79
17607;BME280;8922;52.240;20.980;2022-12-18T06:36:20;102101.97;;;-4.21;75.43
17607;BME280;8922;52.240;20.980;2022-12-18T06:38:49;102102.84;;;-4.21;75.21
17607;BME280;8922;52.240;20.980;2022-12-18T06:41:19;102109.78;;;-4.18;75.83
17607;BME280;8922;52.240;20.980;2022-12-18T06:43:49;102114.41;;;-4.13;75.52
17607;BME280;8922;52.240;20.980;2022-12-18T06:46:25;102116.03;;;-4.13;75.53
17607;BME280;8922;52.240;20.980;2022-12-18T06:48:54;102117.56;;;-4.15;75.40
17607;BME280;8922;52.240;20.980;2022-12-18T06:51:24;102125.63;;;-4.19;75.46
17607;BME280;8922;52.240;20.980;2022-12-18T06:53:53;102139.22;;;-4.17;75.93
17607;BME280;8922;52.240;20.980;2022-12-18T06:56:22;102141.88;;;-4.16;75.90
17607;BME280;8922;52.240;20.980;2022-12-18T06:58:52;102142.75;;;-4.15;76.09
17607;BME280;8922;52.240;20.980;2022-12-18T07:01:20;102138.09;;;-4.21;76.53
17607;BME280;8922;52.240;20.980;2022-12-18T07:03:53;102139.88;;;-4.20;76.46
17607;BME280;8922;52.240;20.980;2022-12-18T07:06:24;102140.75;;;-4.19;76.01
17607;BME280;8922;52.240;20.980;2022-12-18T07:08:54;102149.94;;;-4.20;75.98
17607;BME280;8922;52.240;20.980;2022-12-18T07:11:23;102146.66;;;-4.19;75.76
17607;BME280;8922;52.240;20.980;2022-12-18T07:13:53;102155.19;;;-4.17;76.29
17607;BME280;8922;52.240;20.980;2022-12-18T07:16:22;102169.69;;;-4.14;76.33
17607;BME280;8922;52.240;20.980;2022-12-18T07:18:52;102163.25;;;-4.10;76.55
17607;BME280;8922;52.240;20.980;2022-12-18T07:21:21;102165.88;;;-4.09;76.43
17607;BME280;8922;52.240;20.980;2022-12-18T07:23:50;102169.78;;;-4.02;76.50
17607;BME280;8922;52.240;20.980;2022-12-18T07:26:21;102170.91;;;-3.99;76.57
17607;BME280;8922;52.240;20.980;2022-12-18T07:28:49;102174.31;;;-3.98;76.09
17607;BME280;8922;52.240;20.980;2022-12-18T07:31:21;102177.84;;;-3.96;76.49
17607;BME280;8922;52.240;20.980;2022-12-18T07:33:50;102177.84;;;-3.96;76.46
17607;BME280;8922;52.240;20.980;2022-12-18T07:36:20;102174.81;;;-3.92;76.70
17607;BME280;8922;52.240;20.980;2022-12-18T07:38:51;102171.16;;;-3.85;76.40
17607;BME280;8922;52.240;20.980;2022-12-18T07:41:21;102179.94;;;-3.80;76.25
17607;BME280;8922;52.240;20.980;2022-12-18T07:43:49;102188.63;;;-3.77;75.93
17607;BME280;8922;52.240;20.980;2022-12-18T07:46:19;102191.31;;;-3.75;75.83
17607;BME280;8922;52.240;20.980;2022-12-18T07:48:48;102198.84;;;-3.75;76.17
17607;BME280;8922;52.240;20.980;2022-12-18T07:51:17;102204.09;;;-3.72;76.12
17607;BME280;8922;52.240;20.980;2022-12-18T07:53:47;102203.38;;;-3.71;75.70
17607;BME280;8922;52.240;20.980;2022-12-18T07:56:19;102213.44;;;-3.71;75.62
17607;BME280;8922;52.240;20.980;2022-12-18T07:58:54;102216.72;;;-3.72;75.37
17607;BME280;8922;52.240;20.980;2022-12-18T08:01:24;102221.13;;;-3.70;75.51
17607;BME280;8922;52.240;20.980;2022-12-18T08:03:53;102228.81;;;-3.68;75.70
17607;BME280;8922;52.240;20.980;2022-12-18T08:06:22;102227.81;;;-3.70;75.99
17607;BME280;8922;52.240;20.980;2022-12-18T08:08:52;102239.13;;;-3.65;75.80
17607;BME280;8922;52.240;20.980;2022-12-18T08:11:21;102236.22;;;-3.59;75.33
17607;BME280;8922;52.240;20.980;2022-12-18T08:13:50;102246.91;;;-3.52;75.73
17607;BME280;8922;52.240;20.980;2022-12-18T08:16:21;102244.38;;;-3.42;75.71
17607;BME280;8922;52.240;20.980;2022-12-18T08:18:52;102247.75;;;-3.31;75.48
17607;BME280;8922;52.240;20.980;2022-12-18T08:21:23;102240.56;;;-3.26;74.71
17607;BME280;8922;52.240;20.980;2022-12-18T08:23:54;102258.31;;;-3.25;74.95
17607;BME280;8922;52.240;20.980;2022-12-18T08:26:23;102255.94;;;-3.23;74.12
17607;BME280;8922;52.240;20.980;2022-12-18T08:28:54;102260.44;;;-3.19;74.70
17607;BME280;8922;52.240;20.980;2022-12-18T08:31:23;102256.41;;;-3.17;74.67
17607;BME280;8922;52.240;20.980;2022-12-18T08:33:54;102264.34;;;-3.12;73.92
17607;BME280;8922;52.240;20.980;2022-12-18T08:36:24;102279.84;;;-3.08;73.96
17607;BME280;8922;52.240;20.980;2022-12-18T08:38:53;102274.91;;;-3.06;73.29
17607;BME280;8922;52.240;20.980;2022-12-18T08:41:22;102287.66;;;-3.05;72.74
17607;BME280;8922;52.240;20.980;2022-12-18T08:43:51;102276.78;;;-3.04;72.85
17607;BME280;8922;52.240;20.980;2022-12-18T08:46:39;102287.66;;;-3.05;73.21
17607;BME280;8922;52.240;20.980;2022-12-18T08:49:11;102281.34;;;-3.10;72.06
17607;BME280;8922;52.240;20.980;2022-12-18T08:51:40;102280.09;;;-3.15;72.27
17607;BME280;8922;52.240;20.980;2022-12-18T08:54:11;102286.53;;;-3.19;72.40
17607;BME280;8922;52.240;20.980;2022-12-18T08:56:40;102289.44;;;-3.24;72.41
17607;BME280;8922;52.240;20.980;2022-12-18T08:59:09;102293.34;;;-3.28;73.03
17607;BME280;8922;52.240;20.980;2022-12-18T09:01:46;102283.53;;;-3.25;72.87
17607;BME280;8922;52.240;20.980;2022-12-18T09:04:16;102284.91;;;-3.18;73.54
17607;BME280;8922;52.240;20.980;2022-12-18T09:06:45;102292.09;;;-3.12;72.98
17607;BME280;8922;52.240;20.980;2022-12-18T09:09:13;102295.72;;;-3.09;72.84
17607;BME280;8922;52.240;20.980;2022-12-18T09:11:42;102299.25;;;-3.07;72.66
17607;BME280;8922;52.240;20.980;2022-12-18T09:14:11;102302.88;;;-3.03;72.94
17607;BME280;8922;52.240;20.980;2022-12-18T09:16:40;102304.78;;;-3.01;72.37
17607;BME280;8922;52.240;20.980;2022-12-18T09:19:09;102304.16;;;-2.98;72.58
17607;BME280;8922;52.240;20.980;2022-12-18T09:21:39;102309.31;;;-2.97;72.48
17607;BME280;8922;52.240;20.980;2022-12-18T09:24:14;102311.19;;;-2.94;72.18
17607;BME280;8922;52.240;20.980;2022-12-18T09:26:43;102308.78;;;-2.93;72.27
17607;BME280;8922;52.240;20.980;2022-12-18T09:29:14;102313.94;;;-2.91;71.80
17607;BME280;8922;52.240;20.980;2022-12-18T09:31:45;102309.03;;;-2.89;71.93
17607;BME280;8922;52.240;20.980;2022-12-18T09:34:13;102305.59;;;-2.80;72.22
17607;BME280;8922;52.240;20.980;2022-12-18T09:36:43;102305.69;;;-2.68;72.19
17607;BME280;8922;52.240;20.980;2022-12-18T09:39:13;102309.03;;;-2.57;72.24
17607;BME280;8922;52.240;20.980;2022-12-18T09:41:46;102315.94;;;-2.55;71.20
17607;BME280;8922;52.240;20.980;2022-12-18T09:44:25;102303.84;;;-2.59;70.65
17607;BME280;8922;52.240;20.980;2022-12-18T09:47:03;102311.19;;;-2.62;70.68
17607;BME280;8922;52.240;20.980;2022-12-18T09:49:40;102309.66;;;-2.60;70.75
17607;BME280;8922;52.240;20.980;2022-12-18T09:52:17;102319.66;;;-2.61;71.06
17607;BME280;8922;52.240;20.980;2022-12-18T09:54:53;102323.78;;;-2.62;70.92
17607;BME280;8922;52.240;20.980;2022-12-18T09:57:23;102321.06;;;-2.65;70.83
17607;BME280;8922;52.240;20.980;2022-12-18T09:59:56;102317.75;;;-2.64;71.10
17607;BME280;8922;52.240;20.980;2022-12-18T10:02:30;102322.78;;;-2.54;70.74
17607;BME280;8922;52.240;20.980;2022-12-18T10:05:07;102328.28;;;-2.48;70.49
17607;BME280;8922;52.240;20.980;2022-12-18T10:07:48;102321.38;;;-2.50;69.95
17607;BME280;8922;52.240;20.980;2022-12-18T10:10:34;102323.28;;;-2.58;69.61
17607;BME280;8922;52.240;20.980;2022-12-18T10:13:15;102330.50;;;-2.62;69.95
17607;BME280;8922;52.240;20.980;2022-12-18T10:16:04;102338.72;;;-2.65;70.52
17607;BME280;8922;52.240;20.980;2022-12-18T10:18:55;102340.13;;;-2.69;70.45
17607;BME280;8922;52.240;20.980;2022-12-18T10:21:36;102335.94;;;-2.68;70.36
17607;BME280;8922;52.240;20.980;2022-12-18T10:24:17;102338.47;;;-2.68;71.21
17607;BME280;8922;52.240;20.980;2022-12-18T10:26:48;102358.78;;;-2.67;70.72
17607;BME280;8922;52.240;20.980;2022-12-18T10:29:17;102334.41;;;-2.66;70.84
17607;BME280;8922;52.240;20.980;2022-12-18T10:31:45;102327.25;;;-2.72;71.19
17607;BME280;8922;52.240;20.980;2022-12-18T10:34:14;102339.22;;;-2.69;70.73
17607;BME280;8922;52.240;20.980;2022-12-18T10:36:42;102338.59;;;-2.67;71.00
17607;BME280;8922;52.240;20.980;2022-12-18T10:39:22;102333.53;;;-2.67;71.02
17607;BME280;8922;52.240;20.980;2022-12-18T10:41:52;102336.31;;;-2.63;71.01
17607;BME280;8922;52.240;20.980;2022-12-18T10:44:37;102338.06;;;-2.62;70.85
17607;BME280;8922;52.240;20.980;2022-12-18T10:47:14;102332.66;;;-2.67;70.97
17607;BME280;8922;52.240;20.980;2022-12-18T10:49:49;102332.66;;;-2.67;70.65
17607;BME280;8922;52.240;20.980;2022-12-18T10:52:20;102328.38;;;-2.68;71.13
17607;BME280;8922;52.240;20.980;2022-12-18T10:54:53;102327.63;;;-2.67;71.30
17607;BME280;8922;52.240;20.980;2022-12-18T10:57:34;102323.78;;;-2.62;70.55
17607;BME280;8922;52.240;20.980;2022-12-18T11:00:27;102339.19;;;-2.59;71.39
17607;BME280;8922;52.240;20.980;2022-12-18T11:02:57;102342.19;;;-2.53;70.45
17607;BME280;8922;52.240;20.980;2022-12-18T11:05:29;102337.25;;;-2.51;70.27
17607;BME280;8922;52.240;20.980;2022-12-18T11:08:00;102333.84;;;-2.52;70.34
17607;BME280;8922;52.240;20.980;2022-12-18T11:10:32;102330.56;;;-2.51;70.65
17607;BME280;8922;52.240;20.980;2022-12-18T11:13:19;102335.56;;;-2.40;70.53
17607;BME280;8922;52.240;20.980;2022-12-18T11:15:49;102333.53;;;-2.34;70.07
17607;BME280;8922;52.240;20.980;2022-12-18T11:18:22;102337.28;;;-2.29;70.54
17607;BME280;8922;52.240;20.980;2022-12-18T11:20:56;102334.22;;;-2.25;70.19
17607;BME280;8922;52.240;20.980;2022-12-18T11:23:26;102338.88;;;-2.20;69.89
17607;BME280;8922;52.240;20.980;2022-12-18T11:25:59;102341.88;;;-2.13;69.83
17607;BME280;8922;52.240;20.980;2022-12-18T11:28:39;102341.44;;;-2.08;69.78
17607;BME280;8922;52.240;20.980;2022-12-18T11:31:24;102342.81;;;-2.01;69.82
17607;BME280;8922;52.240;20.980;2022-12-18T11:34:09;102351.19;;;-1.90;69.92
17607;BME280;8922;52.240;20.980;2022-12-18T11:36:55;102343.19;;;-1.85;69.47
17607;BME280;8922;52.240;20.980;2022-12-18T11:39:31;102342.13;;;-1.77;69.43
17607;BME280;8922;52.240;20.980;2022-12-18T11:42:09;102338.16;;;-1.73;69.22
17607;BME280;8922;52.240;20.980;2022-12-18T11:44:46;102345.25;;;-1.69;69.04
17607;BME280;8922;52.240;20.980;2022-12-18T11:47:25;102340.63;;;-1.63;68.77
17607;BME280;8922;52.240;20.980;2022-12-18T11:50:00;102340.97;;;-1.58;68.77
17607;BME280;8922;52.240;20.980;2022-12-18T11:52:36;102349.88;;;-1.52;68.97
17607;BME280;8922;52.240;20.980;2022-12-18T11:55:12;102351.44;;;-1.42;68.37
17607;BME280;8922;52.240;20.980;2022-12-18T11:57:51;102351.22;;;-1.33;68.22
17607;BME280;8922;52.240;20.980;2022-12-18T12:00:23;102344.44;;;-1.23;67.82
17607;BME280;8922;52.240;20.980;2022-12-18T12:03:28;102353.25;;;-1.06;67.28
17607;BME280;8922;52.240;20.980;2022-12-18T12:06:13;102350.09;;;-0.91;66.84
17607;BME280;8922;52.240;20.980;2022-12-18T12:09:01;102342.47;;;-0.80;66.75
17607;BME280;8922;52.240;20.980;2022-12-18T12:11:44;102337.72;;;-0.63;66.26
17607;BME280;8922;52.240;20.980;2022-12-18T12:14:40;102344.31;;;-0.54;65.08
17607;BME280;8922;52.240;20.980;2022-12-18T12:17:17;102351.44;;;-0.48;64.26
17607;BME280;8922;52.240;20.980;2022-12-18T12:19:58;102335.38;;;-0.49;64.61
17607;BME280;8922;52.240;20.980;2022-12-18T12:22:38;102335.59;;;-0.45;64.71
17607;BME280;8922;52.240;20.980;2022-12-18T12:25:28;102342.28;;;-0.34;64.14
17607;BME280;8922;52.240;20.980;2022-12-18T12:28:15;102348.13;;;-0.35;63.76
17607;BME280;8922;52.240;20.980;2022-12-18T12:30:58;102359.81;;;-0.37;62.94
17607;BME280;8922;52.240;20.980;2022-12-18T12:33:38;102355.44;;;-0.40;63.92
17607;BME280;8922;52.240;20.980;2022-12-18T12:36:20;102363.47;;;-0.45;63.23
17607;BME280;8922;52.240;20.980;2022-12-18T12:38:56;102367.75;;;-0.56;62.97
17607;BME280;8922;52.240;20.980;2022-12-18T12:41:27;102377.91;;;-0.68;63.30
17607;BME280;8922;52.240;20.980;2022-12-18T12:44:22;102381.09;;;-0.82;63.25
17607;BME280;8922;52.240;20.980;2022-12-18T12:46:58;102378.66;;;-0.92;64.20
17607;BME280;8922;52.240;20.980;2022-12-18T12:49:33;102378.13;;;-1.00;64.14
17607;BME280;8922;52.240;20.980;2022-12-18T12:52:12;102387.03;;;-1.05;64.77
17607;BME280;8922;52.240;20.980;2022-12-18T12:54:45;102388.00;;;-1.15;64.80
17607;BME280;8922;52.240;20.980;2022-12-18T12:57:20;102396.56;;;-1.25;64.21
17607;BME280;8922;52.240;20.980;2022-12-18T13:00:00;102400.50;;;-1.40;65.41
17607;BME280;8922;52.240;20.980;2022-12-18T13:02:44;102412.34;;;-1.51;65.23
17607;BME280;8922;52.240;20.980;2022-12-18T13:05:21;102428.78;;;-1.56;65.86
17607;BME280;8922;52.240;20.980;2022-12-18T13:07:56;102415.91;;;-1.59;66.21
17607;BME280;8922;52.240;20.980;2022-12-18T13:10:33;102430.09;;;-1.61;66.25
17607;BME280;8922;52.240;20.980;2022-12-18T13:13:06;102422.16;;;-1.65;66.29
17607;BME280;8922;52.240;20.980;2022-12-18T13:15:41;102425.00;;;-1.73;66.53
17607;BME280;8922;52.240;20.980;2022-12-18T13:18:18;102442.69;;;-1.73;67.18